sensor_id;sensor_type;location;lat;lon;timestamp;P1;durP1;ratioP1;P2;durP2;ratioP2
22525;SDS011;11429;50.842;4.386;2022-12-18T00:00:42;36.63;;;20.25;;
22525;SDS011;11429;50.842;4.386;2022-12-18T00:03:09;35.42;;;20.20;;
22525;SDS011;11429;50.842;4.386;2022-12-18T00:05:35;32.85;;;17.77;;
22525;SDS011;11429;50.842;4.386;2022-12-18T00:08:02;34.75;;;19.05;;
22525;SDS011;11429;50.842;4.386;2022-12-18T00:10:28;32.10;;;17.98;;
22525;SDS011;11429;50.842;4.386;2022-12-18T00:12:54;35.25;;;18.52;;
22525;SDS011;11429;50.842;4.386;2022-12-18T00:15:19;33.83;;;18.25;;
22525;SDS011;11429;50.842;4.386;2022-12-18T00:17:45;34.28;;;19.08;;
22525;SDS011;11429;50.842;4.386;2022-12-18T00:20:11;34.13;;;18.67;;
22525;SDS011;11429;50.842;4.386;2022-12-18T00:22:36;36.17;;;19.10;;
22525;SDS011;11429;50.842;4.386;2022-12-18T00:25:02;33.72;;;19.17;;
22525;SDS011;11429;50.842;4.386;2022-12-18T00:27:28;30.00;;;16.65;;
22525;SDS011;11429;50.842;4.386;2022-12-18T00:29:53;35.13;;;19.60;;
22525;SDS011;11429;50.842;4.386;2022-12-18T00:32:19;34.60;;;17.48;;
22525;SDS011;11429;50.842;4.386;2022-12-18T00:34:45;33.58;;;18.38;;
22525;SDS011;11429;50.842;4.386;2022-12-18T00:37:10;32.58;;;17.88;;
22525;SDS011;11429;50.842;4.386;2022-12-18T00:39:36;31.90;;;17.77;;
22525;SDS011;11429;50.842;4.386;2022-12-18T00:42:02;33.47;;;17.55;;
22525;SDS011;11429;50.842;4.386;2022-12-18T00:44:46;31.17;;;16.13;;
22525;SDS011;11429;50.842;4.386;2022-12-18T00:47:11;31.88;;;16.80;;
22525;SDS011;11429;50.842;4.386;2022-12-18T00:49:37;32.67;;;17.02;;
22525;SDS011;11429;50.842;4.386;2022-12-18T00:52:03;28.75;;;15.70;;
22525;SDS011;11429;50.842;4.386;2022-12-18T00:54:29;26.02;;;14.43;;
22525;SDS011;11429;50.842;4.386;2022-12-18T00:56:55;28.23;;;15.65;;
22525;SDS011;11429;50.842;4.386;2022-12-18T00:59:20;25.65;;;15.13;;
22525;SDS011;11429;50.842;4.386;2022-12-18T01:01:46;26.30;;;15.43;;
22525;SDS011;11429;50.842;4.386;2022-12-18T01:04:12;25.55;;;15.00;;
22525;SDS011;11429;50.842;4.386;2022-12-18T01:06:38;23.58;;;14.35;;
22525;SDS011;11429;50.842;4.386;2022-12-18T01:09:05;25.30;;;14.73;;
22525;SDS011;11429;50.842;4.386;2022-12-18T01:11:30;25.52;;;14.48;;
22525;SDS011;11429;50.842;4.386;2022-12-18T01:13:56;27.23;;;15.07;;
22525;SDS011;11429;50.842;4.386;2022-12-18T01:16:22;23.80;;;14.90;;
22525;SDS011;11429;50.842;4.386;2022-12-18T01:18:53;24.70;;;14.50;;
22525;SDS011;11429;50.842;4.386;2022-12-18T01:21:19;25.02;;;14.15;;
22525;SDS011;11429;50.842;4.386;2022-12-18T01:23:45;23.95;;;14.48;;
22525;SDS011;11429;50.842;4.386;2022-12-18T01:26:13;24.85;;;13.23;;
22525;SDS011;11429;50.842;4.386;2022-12-18T01:28:41;22.52;;;13.13;;
22525;SDS011;11429;50.842;4.386;2022-12-18T01:31:13;23.63;;;13.13;;
22525;SDS011;11429;50.842;4.386;2022-12-18T01:33:41;23.33;;;12.90;;
22525;SDS011;11429;50.842;4.386;2022-12-18T01:36:08;24.55;;;12.95;;
22525;SDS011;11429;50.842;4.386;2022-12-18T01:38:39;23.60;;;12.20;;
22525;SDS011;11429;50.842;4.386;2022-12-18T01:41:04;25.60;;;12.93;;
22525;SDS011;11429;50.842;4.386;2022-12-18T01:43:47;24.25;;;12.90;;
22525;SDS011;11429;50.842;4.386;2022-12-18T01:46:19;20.58;;;11.88;;
22525;SDS011;11429;50.842;4.386;2022-12-18T01:48:48;20.42;;;11.50;;
22525;SDS011;11429;50.842;4.386;2022-12-18T01:51:16;20.20;;;11.20;;
22525;SDS011;11429;50.842;4.386;2022-12-18T01:53:42;21.73;;;12.25;;
22525;SDS011;11429;50.842;4.386;2022-12-18T01:56:11;16.75;;;10.88;;
22525;SDS011;11429;50.842;4.386;2022-12-18T01:59:21;21.65;;;11.77;;
22525;SDS011;11429;50.842;4.386;2022-12-18T02:01:29;22.05;;;11.65;;
22525;SDS011;11429;50.842;4.386;2022-12-18T02:04:13;19.27;;;10.55;;
22525;SDS011;11429;50.842;4.386;2022-12-18T02:12:48;20.13;;;11.50;;
22525;SDS011;11429;50.842;4.386;2022-12-18T02:15:47;19.60;;;11.18;;
22525;SDS011;11429;50.842;4.386;2022-12-18T02:18:32;23.02;;;11.80;;
22525;SDS011;11429;50.842;4.386;2022-12-18T02:29:52;18.52;;;10.30;;
22525;SDS011;11429;50.842;4.386;2022-12-18T02:32:19;20.35;;;10.40;;
22525;SDS011;11429;50.842;4.386;2022-12-18T02:34:50;18.40;;;10.95;;
22525;SDS011;11429;50.842;4.386;2022-12-18T02:37:17;19.20;;;11.07;;
22525;SDS011;11429;50.842;4.386;2022-12-18T02:39:46;17.88;;;10.25;;
22525;SDS011;11429;50.842;4.386;2022-12-18T02:42:14;18.77;;;10.63;;
22525;SDS011;11429;50.842;4.386;2022-12-18T02:44:42;19.00;;;10.48;;
22525;SDS011;11429;50.842;4.386;2022-12-18T02:47:12;19.27;;;11.05;;
22525;SDS011;11429;50.842;4.386;2022-12-18T02:52:31;17.15;;;10.55;;
22525;SDS011;11429;50.842;4.386;2022-12-18T03:00:28;20.60;;;10.35;;
22525;SDS011;11429;50.842;4.386;2022-12-18T03:03:14;20.75;;;11.05;;
22525;SDS011;11429;50.842;4.386;2022-12-18T03:05:56;17.67;;;10.65;;
22525;SDS011;11429;50.842;4.386;2022-12-18T03:08:29;18.83;;;10.98;;
22525;SDS011;11429;50.842;4.386;2022-12-18T03:11:02;18.25;;;10.20;;
22525;SDS011;11429;50.842;4.386;2022-12-18T03:13:34;19.80;;;11.00;;
22525;SDS011;11429;50.842;4.386;2022-12-18T03:16:05;17.27;;;10.80;;
22525;SDS011;11429;50.842;4.386;2022-12-18T03:21:05;18.70;;;10.68;;
22525;SDS011;11429;50.842;4.386;2022-12-18T03:23:51;20.70;;;11.10;;
22525;SDS011;11429;50.842;4.386;2022-12-18T03:26:19;19.17;;;11.52;;
22525;SDS011;11429;50.842;4.386;2022-12-18T03:28:50;21.00;;;11.27;;
22525;SDS011;11429;50.842;4.386;2022-12-18T03:31:19;20.42;;;10.40;;
22525;SDS011;11429;50.842;4.386;2022-12-18T03:33:55;20.15;;;10.68;;
22525;SDS011;11429;50.842;4.386;2022-12-18T03:36:24;17.08;;;10.15;;
22525;SDS011;11429;50.842;4.386;2022-12-18T03:38:50;16.90;;;9.60;;
22525;SDS011;11429;50.842;4.386;2022-12-18T03:41:30;19.10;;;10.60;;
22525;SDS011;11429;50.842;4.386;2022-12-18T03:47:23;16.30;;;9.18;;
22525;SDS011;11429;50.842;4.386;2022-12-18T03:50:07;16.05;;;9.30;;
22525;SDS011;11429;50.842;4.386;2022-12-18T03:52:37;18.13;;;9.40;;
22525;SDS011;11429;50.842;4.386;2022-12-18T03:55:07;20.42;;;9.90;;
22525;SDS011;11429;50.842;4.386;2022-12-18T03:57:34;16.33;;;9.15;;
22525;SDS011;11429;50.842;4.386;2022-12-18T04:00:06;17.80;;;9.50;;
22525;SDS011;11429;50.842;4.386;2022-12-18T04:02:36;14.93;;;9.25;;
22525;SDS011;11429;50.842;4.386;2022-12-18T04:05:05;17.25;;;9.70;;
22525;SDS011;11429;50.842;4.386;2022-12-18T04:07:34;16.33;;;9.88;;
22525;SDS011;11429;50.842;4.386;2022-12-18T04:10:02;18.95;;;10.50;;
22525;SDS011;11429;50.842;4.386;2022-12-18T04:12:30;19.10;;;9.27;;
22525;SDS011;11429;50.842;4.386;2022-12-18T04:14:55;16.98;;;10.10;;
22525;SDS011;11429;50.842;4.386;2022-12-18T04:17:21;15.48;;;8.50;;
22525;SDS011;11429;50.842;4.386;2022-12-18T04:19:47;15.73;;;8.57;;
22525;SDS011;11429;50.842;4.386;2022-12-18T04:22:14;14.85;;;9.27;;
22525;SDS011;11429;50.842;4.386;2022-12-18T04:24:40;16.80;;;9.32;;
22525;SDS011;11429;50.842;4.386;2022-12-18T04:27:09;15.80;;;10.18;;
22525;SDS011;11429;50.842;4.386;2022-12-18T04:29:37;17.45;;;9.70;;
22525;SDS011;11429;50.842;4.386;2022-12-18T04:32:03;16.50;;;9.13;;
22525;SDS011;11429;50.842;4.386;2022-12-18T04:34:46;17.48;;;9.48;;
22525;SDS011;11429;50.842;4.386;2022-12-18T04:37:12;17.00;;;9.50;;
22525;SDS011;11429;50.842;4.386;2022-12-18T04:39:38;15.77;;;9.25;;
22525;SDS011;11429;50.842;4.386;2022-12-18T04:42:04;19.15;;;9.73;;
22525;SDS011;11429;50.842;4.386;2022-12-18T04:44:33;16.75;;;9.63;;
22525;SDS011;11429;50.842;4.386;2022-12-18T04:46:59;16.67;;;9.32;;
22525;SDS011;11429;50.842;4.386;2022-12-18T04:49:28;16.30;;;8.70;;
22525;SDS011;11429;50.842;4.386;2022-12-18T04:51:53;18.85;;;9.55;;
22525;SDS011;11429;50.842;4.386;2022-12-18T04:54:19;17.77;;;9.77;;
22525;SDS011;11429;50.842;4.386;2022-12-18T04:56:46;16.50;;;8.70;;
22525;SDS011;11429;50.842;4.386;2022-12-18T04:59:12;15.43;;;9.43;;
22525;SDS011;11429;50.842;4.386;2022-12-18T05:01:38;16.70;;;9.32;;
22525;SDS011;11429;50.842;4.386;2022-12-18T05:04:03;17.45;;;9.48;;
22525;SDS011;11429;50.842;4.386;2022-12-18T05:09:40;16.60;;;8.98;;
22525;SDS011;11429;50.842;4.386;2022-12-18T05:12:06;17.80;;;9.65;;
22525;SDS011;11429;50.842;4.386;2022-12-18T05:14:31;19.13;;;9.80;;
22525;SDS011;11429;50.842;4.386;2022-12-18T05:16:57;17.17;;;8.35;;
22525;SDS011;11429;50.842;4.386;2022-12-18T05:19:26;16.85;;;9.40;;
22525;SDS011;11429;50.842;4.386;2022-12-18T05:21:55;18.02;;;9.55;;
22525;SDS011;11429;50.842;4.386;2022-12-18T05:24:20;18.92;;;10.18;;
22525;SDS011;11429;50.842;4.386;2022-12-18T05:26:46;14.52;;;8.43;;
22525;SDS011;11429;50.842;4.386;2022-12-18T05:29:11;15.38;;;9.30;;
22525;SDS011;11429;50.842;4.386;2022-12-18T05:31:38;15.45;;;8.80;;
22525;SDS011;11429;50.842;4.386;2022-12-18T05:34:07;14.43;;;8.57;;
22525;SDS011;11429;50.842;4.386;2022-12-18T05:36:32;14.70;;;7.53;;
22525;SDS011;11429;50.842;4.386;2022-12-18T05:39:24;12.68;;;7.05;;
22525;SDS011;11429;50.842;4.386;2022-12-18T05:41:50;12.82;;;7.03;;
22525;SDS011;11429;50.842;4.386;2022-12-18T05:44:25;9.60;;;5.72;;
22525;SDS011;11429;50.842;4.386;2022-12-18T05:46:53;13.35;;;6.68;;
22525;SDS011;11429;50.842;4.386;2022-12-18T05:49:20;14.85;;;8.07;;
22525;SDS011;11429;50.842;4.386;2022-12-18T05:51:45;11.50;;;7.07;;
22525;SDS011;11429;50.842;4.386;2022-12-18T05:54:11;10.30;;;6.70;;
22525;SDS011;11429;50.842;4.386;2022-12-18T05:56:46;15.60;;;7.57;;
22525;SDS011;11429;50.842;4.386;2022-12-18T06:00:05;11.40;;;7.00;;
22525;SDS011;11429;50.842;4.386;2022-12-18T06:02:31;13.02;;;7.03;;
22525;SDS011;11429;50.842;4.386;2022-12-18T06:04:57;12.00;;;6.60;;
22525;SDS011;11429;50.842;4.386;2022-12-18T06:07:23;12.68;;;7.45;;
22525;SDS011;11429;50.842;4.386;2022-12-18T06:09:48;12.90;;;6.97;;
22525;SDS011;11429;50.842;4.386;2022-12-18T06:12:14;16.35;;;7.68;;
22525;SDS011;11429;50.842;4.386;2022-12-18T06:14:39;13.90;;;8.07;;
22525;SDS011;11429;50.842;4.386;2022-12-18T06:17:05;15.63;;;7.68;;
22525;SDS011;11429;50.842;4.386;2022-12-18T06:19:31;11.98;;;7.55;;
22525;SDS011;11429;50.842;4.386;2022-12-18T06:21:57;13.10;;;7.40;;
22525;SDS011;11429;50.842;4.386;2022-12-18T06:24:24;13.10;;;7.82;;
22525;SDS011;11429;50.842;4.386;2022-12-18T06:26:49;13.32;;;7.38;;
22525;SDS011;11429;50.842;4.386;2022-12-18T06:29:16;13.57;;;7.20;;
22525;SDS011;11429;50.842;4.386;2022-12-18T06:31:42;11.98;;;6.80;;
22525;SDS011;11429;50.842;4.386;2022-12-18T06:34:07;12.57;;;6.78;;
22525;SDS011;11429;50.842;4.386;2022-12-18T06:36:33;13.07;;;7.50;;
22525;SDS011;11429;50.842;4.386;2022-12-18T06:38:58;12.90;;;6.80;;
22525;SDS011;11429;50.842;4.386;2022-12-18T06:41:24;11.07;;;6.38;;
22525;SDS011;11429;50.842;4.386;2022-12-18T06:43:50;11.45;;;5.90;;
22525;SDS011;11429;50.842;4.386;2022-12-18T06:46:16;9.93;;;5.78;;
22525;SDS011;11429;50.842;4.386;2022-12-18T06:48:41;14.32;;;6.90;;
22525;SDS011;11429;50.842;4.386;2022-12-18T06:51:07;10.02;;;5.68;;
22525;SDS011;11429;50.842;4.386;2022-12-18T06:53:33;10.10;;;5.80;;
22525;SDS011;11429;50.842;4.386;2022-12-18T06:56:00;12.60;;;6.30;;
22525;SDS011;11429;50.842;4.386;2022-12-18T06:58:27;11.85;;;6.50;;
22525;SDS011;11429;50.842;4.386;2022-12-18T07:00:53;9.70;;;5.82;;
22525;SDS011;11429;50.842;4.386;2022-12-18T07:03:23;11.88;;;6.43;;
22525;SDS011;11429;50.842;4.386;2022-12-18T07:05:49;10.02;;;5.80;;
22525;SDS011;11429;50.842;4.386;2022-12-18T07:08:15;10.32;;;6.35;;
22525;SDS011;11429;50.842;4.386;2022-12-18T07:10:41;10.20;;;6.07;;
22525;SDS011;11429;50.842;4.386;2022-12-18T07:13:07;11.23;;;6.57;;
22525;SDS011;11429;50.842;4.386;2022-12-18T07:15:33;10.50;;;6.07;;
22525;SDS011;11429;50.842;4.386;2022-12-18T07:18:00;10.52;;;6.43;;
22525;SDS011;11429;50.842;4.386;2022-12-18T07:20:25;10.52;;;5.97;;
22525;SDS011;11429;50.842;4.386;2022-12-18T07:22:51;12.57;;;6.45;;
22525;SDS011;11429;50.842;4.386;2022-12-18T07:25:16;11.25;;;6.65;;
22525;SDS011;11429;50.842;4.386;2022-12-18T07:27:42;10.82;;;6.18;;
22525;SDS011;11429;50.842;4.386;2022-12-18T07:30:08;10.45;;;6.20;;
22525;SDS011;11429;50.842;4.386;2022-12-18T07:32:34;11.90;;;6.20;;
22525;SDS011;11429;50.842;4.386;2022-12-18T07:35:00;10.05;;;6.07;;
22525;SDS011;11429;50.842;4.386;2022-12-18T07:37:26;9.88;;;5.72;;
22525;SDS011;11429;50.842;4.386;2022-12-18T07:39:51;10.77;;;6.13;;
22525;SDS011;11429;50.842;4.386;2022-12-18T07:42:17;11.85;;;5.97;;
22525;SDS011;11429;50.842;4.386;2022-12-18T07:44:55;11.80;;;6.38;;
22525;SDS011;11429;50.842;4.386;2022-12-18T07:47:21;11.05;;;6.13;;
22525;SDS011;11429;50.842;4.386;2022-12-18T07:49:47;11.95;;;6.30;;
22525;SDS011;11429;50.842;4.386;2022-12-18T07:52:13;11.20;;;6.63;;
22525;SDS011;11429;50.842;4.386;2022-12-18T07:54:38;11.00;;;6.70;;
22525;SDS011;11429;50.842;4.386;2022-12-18T07:57:05;11.77;;;6.60;;
22525;SDS011;11429;50.842;4.386;2022-12-18T07:59:31;13.52;;;6.82;;
22525;SDS011;11429;50.842;4.386;2022-12-18T08:01:57;11.95;;;6.93;;
22525;SDS011;11429;50.842;4.386;2022-12-18T08:04:23;13.07;;;7.00;;
22525;SDS011;11429;50.842;4.386;2022-12-18T08:06:50;10.65;;;6.00;;
22525;SDS011;11429;50.842;4.386;2022-12-18T08:09:15;11.07;;;5.45;;
22525;SDS011;11429;50.842;4.386;2022-12-18T08:11:41;11.48;;;6.00;;
22525;SDS011;11429;50.842;4.386;2022-12-18T08:14:08;10.98;;;6.63;;
22525;SDS011;11429;50.842;4.386;2022-12-18T08:16:34;10.20;;;6.00;;
22525;SDS011;11429;50.842;4.386;2022-12-18T08:19:01;11.90;;;6.10;;
22525;SDS011;11429;50.842;4.386;2022-12-18T08:21:28;12.25;;;6.47;;
22525;SDS011;11429;50.842;4.386;2022-12-18T08:23:58;10.85;;;6.72;;
22525;SDS011;11429;50.842;4.386;2022-12-18T08:26:25;11.93;;;7.07;;
22525;SDS011;11429;50.842;4.386;2022-12-18T08:28:54;13.35;;;6.18;;
22525;SDS011;11429;50.842;4.386;2022-12-18T08:31:20;9.70;;;5.80;;
22525;SDS011;11429;50.842;4.386;2022-12-18T08:33:50;18.17;;;7.68;;
22525;SDS011;11429;50.842;4.386;2022-12-18T08:36:17;12.85;;;6.88;;
22525;SDS011;11429;50.842;4.386;2022-12-18T08:38:44;11.70;;;7.00;;
22525;SDS011;11429;50.842;4.386;2022-12-18T08:41:11;12.82;;;6.68;;
22525;SDS011;11429;50.842;4.386;2022-12-18T08:43:38;12.43;;;7.45;;
22525;SDS011;11429;50.842;4.386;2022-12-18T08:46:26;13.00;;;5.75;;
22525;SDS011;11429;50.842;4.386;2022-12-18T08:48:54;11.57;;;7.03;;
22525;SDS011;11429;50.842;4.386;2022-12-18T08:51:25;12.75;;;7.22;;
22525;SDS011;11429;50.842;4.386;2022-12-18T08:53:50;12.43;;;6.63;;
22525;SDS011;11429;50.842;4.386;2022-12-18T08:56:17;13.30;;;7.50;;
22525;SDS011;11429;50.842;4.386;2022-12-18T08:58:43;12.55;;;5.70;;
22525;SDS011;11429;50.842;4.386;2022-12-18T09:01:09;11.43;;;6.35;;
22525;SDS011;11429;50.842;4.386;2022-12-18T09:03:37;10.35;;;6.57;;
22525;SDS011;11429;50.842;4.386;2022-12-18T09:06:03;10.88;;;6.95;;
22525;SDS011;11429;50.842;4.386;2022-12-18T09:08:29;11.60;;;6.28;;
22525;SDS011;11429;50.842;4.386;2022-12-18T09:10:55;13.93;;;8.05;;
22525;SDS011;11429;50.842;4.386;2022-12-18T09:13:21;12.95;;;7.10;;
22525;SDS011;11429;50.842;4.386;2022-12-18T09:15:49;11.20;;;6.47;;
22525;SDS011;11429;50.842;4.386;2022-12-18T09:18:19;15.15;;;7.65;;
22525;SDS011;11429;50.842;4.386;2022-12-18T09:20:46;13.77;;;7.57;;
22525;SDS011;11429;50.842;4.386;2022-12-18T09:23:12;14.15;;;7.80;;
22525;SDS011;11429;50.842;4.386;2022-12-18T09:25:38;13.15;;;7.68;;
22525;SDS011;11429;50.842;4.386;2022-12-18T09:28:12;11.85;;;7.18;;
22525;SDS011;11429;50.842;4.386;2022-12-18T09:30:40;17.15;;;8.35;;
22525;SDS011;11429;50.842;4.386;2022-12-18T09:33:07;14.82;;;8.35;;
22525;SDS011;11429;50.842;4.386;2022-12-18T09:35:37;14.27;;;8.45;;
22525;SDS011;11429;50.842;4.386;2022-12-18T09:38:03;14.75;;;7.82;;
22525;SDS011;11429;50.842;4.386;2022-12-18T09:40:32;14.45;;;8.43;;
22525;SDS011;11429;50.842;4.386;2022-12-18T09:43:06;12.23;;;8.48;;
22525;SDS011;11429;50.842;4.386;2022-12-18T09:45:41;14.48;;;8.48;;
22525;SDS011;11429;50.842;4.386;2022-12-18T09:48:18;17.15;;;9.88;;
22525;SDS011;11429;50.842;4.386;2022-12-18T09:51:02;13.15;;;8.75;;
22525;SDS011;11429;50.842;4.386;2022-12-18T09:53:46;14.85;;;8.68;;
22525;SDS011;11429;50.842;4.386;2022-12-18T09:56:17;16.63;;;9.60;;
22525;SDS011;11429;50.842;4.386;2022-12-18T09:58:59;16.65;;;10.00;;
22525;SDS011;11429;50.842;4.386;2022-12-18T10:01:29;15.80;;;8.82;;
22525;SDS011;11429;50.842;4.386;2022-12-18T10:03:56;16.92;;;9.50;;
22525;SDS011;11429;50.842;4.386;2022-12-18T10:06:26;16.05;;;10.05;;
22525;SDS011;11429;50.842;4.386;2022-12-18T10:19:53;15.98;;;9.65;;
22525;SDS011;11429;50.842;4.386;2022-12-18T10:25:23;17.25;;;10.55;;
22525;SDS011;11429;50.842;4.386;2022-12-18T10:28:10;17.00;;;10.15;;
22525;SDS011;11429;50.842;4.386;2022-12-18T10:30:41;18.13;;;10.90;;
22525;SDS011;11429;50.842;4.386;2022-12-18T10:33:20;17.73;;;11.15;;
22525;SDS011;11429;50.842;4.386;2022-12-18T10:35:51;18.75;;;10.85;;
22525;SDS011;11429;50.842;4.386;2022-12-18T10:40:54;16.45;;;10.77;;
22525;SDS011;11429;50.842;4.386;2022-12-18T10:43:23;18.33;;;11.10;;
22525;SDS011;11429;50.842;4.386;2022-12-18T10:46:01;19.80;;;12.30;;
22525;SDS011;11429;50.842;4.386;2022-12-18T10:48:30;18.25;;;12.52;;
22525;SDS011;11429;50.842;4.386;2022-12-18T10:50:58;22.20;;;12.15;;
22525;SDS011;11429;50.842;4.386;2022-12-18T10:53:27;20.35;;;11.52;;
22525;SDS011;11429;50.842;4.386;2022-12-18T10:55:55;17.15;;;11.43;;
22525;SDS011;11429;50.842;4.386;2022-12-18T10:58:27;21.15;;;11.75;;
22525;SDS011;11429;50.842;4.386;2022-12-18T11:01:05;18.92;;;11.45;;
22525;SDS011;11429;50.842;4.386;2022-12-18T11:03:43;19.23;;;12.20;;
22525;SDS011;11429;50.842;4.386;2022-12-18T11:06:11;19.25;;;11.65;;
22525;SDS011;11429;50.842;4.386;2022-12-18T11:08:42;19.70;;;11.60;;
22525;SDS011;11429;50.842;4.386;2022-12-18T11:11:22;19.17;;;12.13;;
22525;SDS011;11429;50.842;4.386;2022-12-18T11:13:57;19.13;;;12.02;;
22525;SDS011;11429;50.842;4.386;2022-12-18T11:16:27;18.00;;;11.40;;
22525;SDS011;11429;50.842;4.386;2022-12-18T11:19:06;19.92;;;11.60;;
22525;SDS011;11429;50.842;4.386;2022-12-18T11:21:40;19.38;;;12.35;;
22525;SDS011;11429;50.842;4.386;2022-12-18T11:27:05;19.65;;;12.60;;
22525;SDS011;11429;50.842;4.386;2022-12-18T11:29:40;16.55;;;11.20;;
22525;SDS011;11429;50.842;4.386;2022-12-18T11:35:17;18.47;;;11.37;;
22525;SDS011;11429;50.842;4.386;2022-12-18T11:37:50;17.77;;;11.10;;
22525;SDS011;11429;50.842;4.386;2022-12-18T11:40:33;20.80;;;11.88;;
22525;SDS011;11429;50.842;4.386;2022-12-18T11:43:20;18.40;;;11.60;;
22525;SDS011;11429;50.842;4.386;2022-12-18T11:48:33;18.58;;;11.35;;
22525;SDS011;11429;50.842;4.386;2022-12-18T11:51:20;18.38;;;11.48;;
22525;SDS011;11429;50.842;4.386;2022-12-18T11:53:53;18.48;;;11.07;;
22525;SDS011;11429;50.842;4.386;2022-12-18T12:01:40;18.23;;;11.15;;
22525;SDS011;11429;50.842;4.386;2022-12-18T12:10:03;18.85;;;11.38;;
22525;SDS011;11429;50.842;4.386;2022-12-18T12:13:08;18.17;;;11.27;;
22525;SDS011;11429;50.842;4.386;2022-12-18T12:21:42;20.38;;;11.13;;
22525;SDS011;11429;50.842;4.386;2022-12-18T12:24:21;18.35;;;11.07;;
22525;SDS011;11429;50.842;4.386;2022-12-18T12:32:38;22.48;;;12.32;;
22525;SDS011;11429;50.842;4.386;2022-12-18T12:35:22;22.27;;;13.20;;
22525;SDS011;11429;50.842;4.386;2022-12-18T12:40:29;21.50;;;12.98;;
22525;SDS011;11429;50.842;4.386;2022-12-18T12:43:16;20.35;;;12.68;;
22525;SDS011;11429;50.842;4.386;2022-12-18T12:51:02;21.95;;;13.10;;
22525;SDS011;11429;50.842;4.386;2022-12-18T12:53:35;22.38;;;13.18;;
22525;SDS011;11429;50.842;4.386;2022-12-18T12:56:03;22.88;;;13.35;;
22525;SDS011;11429;50.842;4.386;2022-12-18T13:06:25;22.43;;;12.93;;
22525;SDS011;11429;50.842;4.386;2022-12-18T13:09:08;22.08;;;13.32;;
22525;SDS011;11429;50.842;4.386;2022-12-18T13:11:46;23.55;;;13.82;;
22525;SDS011;11429;50.842;4.386;2022-12-18T13:14:39;26.05;;;13.98;;
22525;SDS011;11429;50.842;4.386;2022-12-18T13:19:43;25.13;;;15.00;;
22525;SDS011;11429;50.842;4.386;2022-12-18T13:22:28;25.73;;;14.90;;
22525;SDS011;11429;50.842;4.386;2022-12-18T13:25:01;24.02;;;13.82;;
22525;SDS011;11429;50.842;4.386;2022-12-18T13:43:47;23.38;;;14.27;;
22525;SDS011;11429;50.842;4.386;2022-12-18T13:51:44;24.50;;;14.25;;
22525;SDS011;11429;50.842;4.386;2022-12-18T13:57:04;29.52;;;15.82;;
22525;SDS011;11429;50.842;4.386;2022-12-18T13:59:50;28.77;;;16.48;;
22525;SDS011;11429;50.842;4.386;2022-12-18T14:02:17;28.17;;;16.20;;
22525;SDS011;11429;50.842;4.386;2022-12-18T14:04:47;26.75;;;15.60;;
22525;SDS011;11429;50.842;4.386;2022-12-18T14:07:24;30.95;;;16.85;;
22525;SDS011;11429;50.842;4.386;2022-12-18T14:09:58;29.17;;;15.95;;
22525;SDS011;11429;50.842;4.386;2022-12-18T14:17:49;33.47;;;18.50;;
22525;SDS011;11429;50.842;4.386;2022-12-18T14:20:31;35.72;;;17.90;;
22525;SDS011;11429;50.842;4.386;2022-12-18T14:22:58;32.72;;;18.05;;
22525;SDS011;11429;50.842;4.386;2022-12-18T14:25:28;28.88;;;16.63;;
22525;SDS011;11429;50.842;4.386;2022-12-18T14:36:01;32.35;;;18.05;;
22525;SDS011;11429;50.842;4.386;2022-12-18T14:38:36;33.00;;;18.38;;
22525;SDS011;11429;50.842;4.386;2022-12-18T14:43:37;31.15;;;18.92;;
22525;SDS011;11429;50.842;4.386;2022-12-18T14:49:03;35.90;;;20.02;;
22525;SDS011;11429;50.842;4.386;2022-12-18T14:51:42;31.58;;;18.73;;
22525;SDS011;11429;50.842;4.386;2022-12-18T14:54:27;30.95;;;17.60;;
22525;SDS011;11429;50.842;4.386;2022-12-18T14:57:04;33.00;;;18.08;;
22525;SDS011;11429;50.842;4.386;2022-12-18T14:59:40;33.40;;;18.70;;
22525;SDS011;11429;50.842;4.386;2022-12-18T15:04:59;30.20;;;17.48;;
22525;SDS011;11429;50.842;4.386;2022-12-18T15:07:39;35.00;;;18.30;;
22525;SDS011;11429;50.842;4.386;2022-12-18T15:10:15;34.38;;;18.38;;
22525;SDS011;11429;50.842;4.386;2022-12-18T15:12:44;34.20;;;18.30;;
22525;SDS011;11429;50.842;4.386;2022-12-18T15:18:00;32.13;;;18.10;;
22525;SDS011;11429;50.842;4.386;2022-12-18T15:20:27;34.05;;;19.13;;
22525;SDS011;11429;50.842;4.386;2022-12-18T15:22:55;34.67;;;19.25;;
22525;SDS011;11429;50.842;4.386;2022-12-18T15:28:26;36.90;;;19.17;;
22525;SDS011;11429;50.842;4.386;2022-12-18T15:33:37;30.67;;;17.40;;
22525;SDS011;11429;50.842;4.386;2022-12-18T15:36:15;31.20;;;16.63;;
22525;SDS011;11429;50.842;4.386;2022-12-18T15:38:46;31.23;;;17.25;;
22525;SDS011;11429;50.842;4.386;2022-12-18T15:41:19;37.42;;;18.58;;
22525;SDS011;11429;50.842;4.386;2022-12-18T15:43:49;30.90;;;17.40;;
22525;SDS011;11429;50.842;4.386;2022-12-18T15:46:17;30.92;;;18.45;;
22525;SDS011;11429;50.842;4.386;2022-12-18T15:48:47;30.17;;;16.48;;
22525;SDS011;11429;50.842;4.386;2022-12-18T15:51:15;32.22;;;17.98;;
22525;SDS011;11429;50.842;4.386;2022-12-18T15:53:59;34.88;;;19.40;;
22525;SDS011;11429;50.842;4.386;2022-12-18T15:56:25;31.52;;;16.83;;
22525;SDS011;11429;50.842;4.386;2022-12-18T15:59:11;30.90;;;16.85;;
22525;SDS011;11429;50.842;4.386;2022-12-18T16:01:42;34.08;;;17.58;;
22525;SDS011;11429;50.842;4.386;2022-12-18T16:04:11;30.15;;;14.52;;
22525;SDS011;11429;50.842;4.386;2022-12-18T16:06:39;33.97;;;17.63;;
22525;SDS011;11429;50.842;4.386;2022-12-18T16:09:06;29.90;;;16.70;;
22525;SDS011;11429;50.842;4.386;2022-12-18T16:11:37;31.05;;;16.55;;
22525;SDS011;11429;50.842;4.386;2022-12-18T16:16:40;27.13;;;14.80;;
22525;SDS011;11429;50.842;4.386;2022-12-18T16:19:09;31.30;;;17.25;;
22525;SDS011;11429;50.842;4.386;2022-12-18T16:21:35;32.55;;;17.00;;
22525;SDS011;11429;50.842;4.386;2022-12-18T16:24:01;27.40;;;14.20;;
22525;SDS011;11429;50.842;4.386;2022-12-18T16:26:27;32.05;;;16.38;;
22525;SDS011;11429;50.842;4.386;2022-12-18T16:28:53;29.63;;;15.40;;
22525;SDS011;11429;50.842;4.386;2022-12-18T16:31:19;30.13;;;17.17;;
22525;SDS011;11429;50.842;4.386;2022-12-18T16:33:45;30.17;;;16.65;;
22525;SDS011;11429;50.842;4.386;2022-12-18T16:36:11;30.05;;;16.02;;
22525;SDS011;11429;50.842;4.386;2022-12-18T16:38:37;28.38;;;15.85;;
22525;SDS011;11429;50.842;4.386;2022-12-18T16:41:06;23.85;;;13.25;;
22525;SDS011;11429;50.842;4.386;2022-12-18T16:44:02;25.27;;;14.07;;
22525;SDS011;11429;50.842;4.386;2022-12-18T16:46:29;29.85;;;15.05;;
22525;SDS011;11429;50.842;4.386;2022-12-18T16:48:56;32.45;;;15.55;;
22525;SDS011;11429;50.842;4.386;2022-12-18T16:51:23;25.20;;;13.98;;
22525;SDS011;11429;50.842;4.386;2022-12-18T16:53:49;26.98;;;14.30;;
22525;SDS011;11429;50.842;4.386;2022-12-18T16:56:15;29.95;;;14.80;;
22525;SDS011;11429;50.842;4.386;2022-12-18T16:58:42;25.67;;;14.63;;
22525;SDS011;11429;50.842;4.386;2022-12-18T17:01:11;27.27;;;15.00;;
22525;SDS011;11429;50.842;4.386;2022-12-18T17:03:37;29.25;;;15.25;;
22525;SDS011;11429;50.842;4.386;2022-12-18T17:06:03;29.05;;;16.20;;
22525;SDS011;11429;50.842;4.386;2022-12-18T17:08:29;25.77;;;15.50;;
22525;SDS011;11429;50.842;4.386;2022-12-18T17:11:07;27.13;;;14.65;;
22525;SDS011;11429;50.842;4.386;2022-12-18T17:13:33;25.63;;;13.45;;
22525;SDS011;11429;50.842;4.386;2022-12-18T17:16:02;27.13;;;15.07;;
22525;SDS011;11429;50.842;4.386;2022-12-18T17:18:29;27.83;;;15.27;;